Time;durP1;ratioP1;P1;durP2;ratioP2;P2;SDS_P1;SDS_P2;PMS_P1;PMS_P2;Temp;Humidity;BMP_temperature;BMP_pressure;BME280_temperature;BME280_humidity;BME280_pressure;Samples;Min_cycle;Max_cycle;Signal;HPM_P1;HPM_P2
2022/11/12 00:00:40;;;;;;;2.23;2.13;;;;;;;12.86;77.45;100930.34;5093204;28;20275;-64
2022/11/12 00:03:07;;;;;;;2.20;2.10;;;;;;;12.84;77.96;100929.69;5092357;28;20195;-64
2022/11/12 00:05:34;;;;;;;2.27;2.17;;;;;;;12.88;77.83;100919.50;5092593;28;20647;-63
2022/11/12 00:08:02;;;;;;;2.13;2.03;;;;;;;12.94;77.94;100929.47;5092553;28;20188;-63
2022/11/12 00:10:30;;;;;;;2.40;2.30;;;;;;;12.95;77.82;100931.13;5092209;28;20195;-64
2022/11/12 00:12:57;;;;;;;2.60;2.50;;;;;;;12.96;78.67;100928.28;5086949;28;20200;-64
2022/11/12 00:15:24;;;;;;;2.73;2.50;;;;;;;13.01;79.93;100917.09;5091355;28;20220;-64
2022/11/12 00:17:50;;;;;;;2.40;2.30;;;;;;;13.03;80.33;100923.91;5092673;28;20225;-64
2022/11/12 00:20:17;;;;;;;3.30;3.00;;;;;;;12.91;81.77;100917.28;5092056;28;20192;-63
2022/11/12 00:22:44;;;;;;;6.57;2.70;;;;;;;12.76;82.62;100913.75;5092091;28;20196;-64
2022/11/12 00:25:12;;;;;;;2.60;2.50;;;;;;;12.80;82.76;100912.38;5091942;28;20246;-63
2022/11/12 00:27:38;;;;;;;2.67;2.57;;;;;;;12.83;82.22;100914.69;5092364;28;20248;-64
2022/11/12 00:30:06;;;;;;;2.93;2.73;;;;;;;12.77;82.43;100902.06;5092116;28;20244;-63
2022/11/12 00:32:35;;;;;;;3.00;2.80;;;;;;;12.76;83.21;100910.22;5091886;28;20198;-63
2022/11/12 00:35:02;;;;;;;3.40;3.20;;;;;;;12.78;83.32;100913.56;5092075;28;20271;-64
2022/11/12 00:37:29;;;;;;;2.87;2.77;;;;;;;12.82;82.82;100913.03;5092016;28;20187;-64
2022/11/12 00:39:55;;;;;;;3.60;3.40;;;;;;;12.81;81.99;100915.88;5091698;28;20618;-64
2022/11/12 00:42:23;;;;;;;3.33;3.13;;;;;;;12.80;81.93;100912.38;5092075;28;20263;-64
2022/11/12 00:44:50;;;;;;;3.73;3.43;;;;;;;12.79;81.53;100909.91;5091428;28;20245;-64
2022/11/12 00:47:17;;;;;;;3.73;3.53;;;;;;;12.82;84.18;100905.03;5091742;28;20325;-64
2022/11/12 00:49:44;;;;;;;3.60;3.30;;;;;;;12.82;85.92;100905.03;5091936;28;20195;-64
2022/11/12 00:52:10;;;;;;;5.03;3.97;;;;;;;12.79;87.22;100900.06;5091652;28;20189;-63
2022/11/12 00:54:37;;;;;;;3.87;3.57;;;;;;;12.75;88.58;100893.44;5092243;28;20583;-64
2022/11/12 00:57:04;;;;;;;4.67;4.37;;;;;;;12.74;88.72;100897.06;5091984;28;20191;-63
2022/11/12 00:59:32;;;;;;;4.50;4.10;;;;;;;12.66;89.49;100889.13;5092372;28;20264;-64
2022/11/12 01:01:58;;;;;;;3.97;3.70;;;;;;;12.63;90.27;100889.50;5092143;28;20226;-63
2022/11/12 01:04:25;;;;;;;4.03;3.73;;;;;;;12.57;90.93;100890.19;5095260;28;20197;-64
2022/11/12 01:06:52;;;;;;;5.10;3.70;;;;;;;12.54;92.25;100889.72;5095720;28;20195;-64
2022/11/12 01:09:18;;;;;;;4.57;4.20;;;;;;;12.55;92.44;100884.19;5095521;28;20255;-64
2022/11/12 01:11:45;;;;;;;4.10;3.90;;;;;;;12.49;92.58;100881.41;5095877;28;20198;-64
2022/11/12 01:14:12;;;;;;;4.33;4.00;;;;;;;12.45;93.88;100880.91;5088873;28;20555;-64
2022/11/12 01:16:41;;;;;;;4.47;4.17;;;;;;;12.46;94.03;100874.56;5095826;28;20224;-63
2022/11/12 01:19:11;;;;;;;4.93;4.63;;;;;;;12.40;93.62;100872.59;5095382;28;20254;-63
2022/11/12 01:21:40;;;;;;;5.10;4.70;;;;;;;12.30;94.02;100874.66;5095221;28;20193;-63
2022/11/12 01:24:07;;;;;;;4.63;4.00;;;;;;;12.26;93.42;100870.69;5095547;28;20247;-64
2022/11/12 01:26:35;;;;;;;4.87;4.57;;;;;;;12.29;94.24;100872.97;5095648;28;20198;-64
2022/11/12 01:29:01;;;;;;;5.07;4.70;;;;;;;12.23;94.11;100875.50;5095109;28;20598;-64
2022/11/12 01:31:30;;;;;;;4.90;4.50;;;;;;;12.24;94.73;100875.34;5094989;28;20193;-63
2022/11/12 01:34:01;;;;;;;5.27;4.77;;;;;;;12.09;95.68;100854.94;5095126;28;20734;-63
2022/11/12 01:36:30;;;;;;;5.40;5.00;;;;;;;12.02;95.92;100853.97;5095136;28;20276;-64
2022/11/12 01:38:57;;;;;;;5.43;5.10;;;;;;;11.91;96.55;100856.97;5095222;28;20251;-64
2022/11/12 01:41:26;;;;;;;5.90;5.50;;;;;;;11.92;97.38;100862.13;5094456;28;20552;-64
2022/11/12 01:44:10;;;;;;;5.90;5.40;;;;;;;11.89;97.10;100862.50;5094954;28;20192;-64
2022/11/12 01:46:43;;;;;;;5.80;5.27;;;;;;;11.93;97.81;100866.50;5094992;28;20190;-64
2022/11/12 01:49:16;;;;;;;5.63;5.33;;;;;;;11.90;97.67;100864.16;5095027;28;20232;-64
2022/11/12 01:51:46;;;;;;;6.07;5.27;;;;;;;11.89;98.35;100857.19;5094561;28;20212;-64
2022/11/12 01:54:16;;;;;;;6.03;5.63;;;;;;;11.88;98.17;100858.16;5095202;28;20187;-64
2022/11/12 01:56:44;;;;;;;5.90;5.50;;;;;;;11.91;98.36;100868.47;5094521;28;20288;-64
2022/11/12 01:59:15;;;;;;;6.50;5.93;;;;;;;11.91;98.49;100868.47;5094752;28;20615;-64
2022/11/12 02:01:42;;;;;;;5.77;5.27;;;;;;;11.94;98.14;100868.16;5094646;28;20244;-63
2022/11/12 02:04:08;;;;;;;5.50;5.10;;;;;;;11.98;98.24;100864.13;5094870;28;20280;-63
2022/11/12 02:06:37;;;;;;;6.17;5.67;;;;;;;11.98;98.07;100860.63;5095378;28;20202;-63
2022/11/12 02:09:05;;;;;;;5.80;5.40;;;;;;;11.93;97.46;100862.97;5094270;28;20193;-63
2022/11/12 02:11:31;;;;;;;5.80;5.40;;;;;;;11.86;97.83;100862.84;5094723;28;20611;-63
2022/11/12 02:13:57;;;;;;;5.53;5.23;;;;;;;11.78;98.26;100870.84;5087549;28;20254;-63
2022/11/12 02:16:25;;;;;;;6.47;5.97;;;;;;;11.77;98.94;100863.88;5094030;28;20228;-63
2022/11/12 02:18:51;;;;;;;6.23;5.73;;;;;;;11.79;99.27;100863.66;5094314;28;20571;-63
2022/11/12 02:21:21;;;;;;;9.13;8.37;;;;;;;11.84;98.89;100869.34;5094103;28;20228;-64
2022/11/12 02:23:47;;;;;;;12.10;10.90;;;;;;;11.86;99.04;100862.84;5094255;28;20676;-64
2022/11/12 02:26:14;;;;;;;9.60;8.80;;;;;;;11.80;99.03;100858.19;5093619;28;20197;-64
2022/11/12 02:28:41;;;;;;;7.97;7.30;;;;;;;11.80;98.71;100871.50;5093991;28;20197;-64
2022/11/12 02:31:08;;;;;;;6.73;6.30;;;;;;;11.77;99.10;100866.53;5093757;28;20193;-65
2022/11/12 02:33:34;;;;;;;7.40;6.83;;;;;;;11.72;99.05;100866.19;5093905;28;20197;-64
2022/11/12 02:36:01;;;;;;;7.83;7.30;;;;;;;11.74;99.42;100874.84;5093733;28;20220;-64
2022/11/12 02:38:29;;;;;;;7.40;6.83;;;;;;;11.78;99.39;100865.53;5094181;28;20192;-64
2022/11/12 02:40:56;;;;;;;7.23;6.57;;;;;;;11.79;98.97;100877.81;5093438;28;20196;-64
2022/11/12 02:43:22;;;;;;;6.83;6.33;;;;;;;11.76;99.14;100875.50;5093687;28;20734;-64
2022/11/12 02:45:49;;;;;;;7.23;6.67;;;;;;;11.78;99.55;100876.16;5093716;28;20569;-64
2022/11/12 02:48:16;;;;;;;7.00;6.33;;;;;;;11.83;99.08;100871.16;5093879;28;20220;-63
2022/11/12 02:50:43;;;;;;;6.60;6.20;;;;;;;11.86;98.66;100872.66;5094260;28;20205;-64
2022/11/12 02:53:09;;;;;;;7.27;6.77;;;;;;;11.83;98.02;100876.47;5093381;28;20240;-64
2022/11/12 02:55:37;;;;;;;8.67;7.87;;;;;;;11.88;98.94;100868.81;5093503;28;20637;-64
2022/11/12 02:58:04;;;;;;;8.70;7.83;;;;;;;11.91;98.72;100876.47;5093720;28;20238;-64
2022/11/12 03:00:31;;;;;;;10.20;9.30;;;;;;;11.84;98.45;100872.81;5093455;28;20230;-63
2022/11/12 03:02:58;;;;;;;9.43;8.63;;;;;;;11.88;98.80;100879.47;5093121;28;20724;-63
2022/11/12 03:05:26;;;;;;;9.70;8.93;;;;;;;11.93;98.41;100871.81;5093823;28;20280;-63
2022/11/12 03:07:57;;;;;;;9.10;8.40;;;;;;;11.92;98.20;100872.78;5093719;28;20200;-64
2022/11/12 03:10:25;;;;;;;8.83;7.73;;;;;;;11.89;98.30;100875.81;5093196;28;20280;-63
2022/11/12 03:12:53;;;;;;;7.67;7.07;;;;;;;11.80;98.27;100874.16;5088657;28;20273;-64
2022/11/12 03:15:20;;;;;;;7.77;7.07;;;;;;;11.77;97.49;100879.84;5092088;28;20577;-63
2022/11/12 03:17:47;;;;;;;8.03;7.47;;;;;;;11.74;97.18;100874.84;5093392;28;20653;-64
2022/11/12 03:20:14;;;;;;;8.53;7.77;;;;;;;11.66;98.25;100872.19;5093699;28;20198;-63
2022/11/12 03:22:41;;;;;;;14.63;9.63;;;;;;;11.65;99.08;100870.53;5093823;28;20188;-63
2022/11/12 03:25:09;;;;;;;11.63;10.17;;;;;;;11.71;99.38;100867.19;5093587;28;20309;-63
2022/11/12 03:27:36;;;;;;;10.80;9.63;;;;;;;11.76;99.43;100875.50;5092806;28;20188;-64
2022/11/12 03:30:05;;;;;;;17.03;14.30;;;;;;;11.75;99.94;100873.84;5093131;28;20194;-64
2022/11/12 03:32:31;;;;;;;15.47;13.83;;;;;;;11.75;99.63;100875.66;5092960;28;20245;-64
2022/11/12 03:34:58;;;;;;;10.63;9.63;;;;;;;11.80;99.63;100873.34;5092852;28;20218;-64
2022/11/12 03:37:25;;;;;;;8.07;7.37;;;;;;;11.80;99.12;100873.34;5092856;28;20199;-64
2022/11/12 03:39:51;;;;;;;7.80;7.20;;;;;;;11.82;98.88;100877.50;5092314;28;20664;-63
2022/11/12 03:42:18;;;;;;;8.20;7.60;;;;;;;11.84;98.85;100875.47;5081873;28;20668;-64
2022/11/12 03:44:45;;;;;;;8.30;7.67;;;;;;;11.88;99.32;100882.13;5072279;28;20271;-63
2022/11/12 03:47:13;;;;;;;8.50;7.80;;;;;;;11.91;99.11;100878.28;5072299;28;20247;-64
2022/11/12 03:49:39;;;;;;;8.53;7.87;;;;;;;11.92;99.23;100877.31;5072031;28;20196;-64
2022/11/12 03:52:06;;;;;;;8.67;8.00;;;;;;;11.95;99.34;100883.13;5072429;28;20193;-64
2022/11/12 03:54:33;;;;;;;9.20;8.50;;;;;;;11.89;99.00;100873.16;5072002;28;20197;-64
2022/11/12 03:56:59;;;;;;;11.07;9.10;;;;;;;11.91;98.65;100875.63;5072093;28;20228;-63
2022/11/12 03:59:26;;;;;;;9.90;8.90;;;;;;;11.86;98.45;100881.47;5072160;28;20194;-64
2022/11/12 04:01:53;;;;;;;8.07;7.20;;;;;;;11.78;98.62;100870.84;5072587;28;20197;-64
2022/11/12 04:04:21;;;;;;;8.70;8.10;;;;;;;11.60;99.12;100867.53;5071933;28;20189;-64
2022/11/12 04:09:31;;;;;;;8.50;7.90;;;;;;;11.70;100.00;100873.53;5050946;28;20561;-64
2022/11/12 04:13:26;;;;;;;8.67;8.07;;;;;;;11.73;100.00;100877.66;5072189;28;20198;-63
2022/11/12 04:14:44;;;;;;;8.00;7.50;;;;;;;11.78;100.00;100870.84;5085995;28;20179;-63
2022/11/12 04:22:55;;;;;;;8.30;7.60;;;;;;;11.88;99.82;100884.78;5029617;28;20187;-64
2022/11/12 04:28:02;;;;;;;8.90;8.10;;;;;;;11.93;99.53;100879.81;5036012;28;20196;-64
2022/11/12 04:30:28;;;;;;;7.83;7.30;;;;;;;11.96;99.37;100876.78;5076933;28;20189;-64
2022/11/12 04:32:55;;;;;;;9.30;8.40;;;;;;;11.97;99.15;100878.44;5071662;28;20240;-64
2022/11/12 04:35:25;;;;;;;8.37;7.63;;;;;;;11.94;99.21;100867.31;5071334;28;20225;-64
2022/11/12 04:37:52;;;;;;;8.37;7.67;;;;;;;11.93;98.90;100887.78;5070997;28;20192;-64
2022/11/12 04:45:52;;;;;;;9.07;8.17;;;;;;;11.92;98.49;100888.78;5071848;28;20188;-64
2022/11/12 04:48:20;;;;;;;9.30;8.43;;;;;;;11.88;98.81;100892.78;5071682;28;20189;-64
2022/11/12 04:50:53;;;;;;;9.30;8.53;;;;;;;11.90;98.82;100885.47;5072202;28;20196;-64
2022/11/12 04:53:20;;;;;;;8.57;7.87;;;;;;;11.93;98.59;100893.13;5071192;28;20212;-64
2022/11/12 04:55:49;;;;;;;8.37;7.80;;;;;;;11.96;98.16;100895.41;5072047;28;20220;-64
2022/11/12 04:58:16;;;;;;;8.77;8.17;;;;;;;12.00;98.40;100894.06;5071545;28;20282;-64
2022/11/12 05:00:43;;;;;;;8.80;8.20;;;;;;;12.03;98.12;100906.22;5071724;28;20254;-64
2022/11/12 05:03:09;;;;;;;10.23;9.27;;;;;;;12.02;97.71;100897.41;5071208;28;20199;-64
2022/11/12 05:05:36;;;;;;;8.43;7.83;;;;;;;11.93;97.45;100884.28;5071002;28;20238;-64
2022/11/12 05:08:04;;;;;;;10.20;8.80;;;;;;;12.08;97.65;100906.56;5070901;28;20190;-64
2022/11/12 05:10:31;;;;;;;9.20;8.40;;;;;;;12.07;96.83;100913.69;5071359;28;20193;-64
2022/11/12 05:12:58;;;;;;;9.10;8.40;;;;;;;12.12;96.85;100911.34;5076303;28;20189;-64
2022/11/12 05:15:25;;;;;;;9.07;8.27;;;;;;;12.14;96.87;100912.03;5090743;28;20200;-64
2022/11/12 05:17:52;;;;;;;9.10;8.40;;;;;;;12.16;96.48;100918.00;5091294;28;20281;-65
2022/11/12 05:20:18;;;;;;;9.37;8.57;;;;;;;12.18;96.48;100913.34;5091363;28;20188;-64
2022/11/12 05:22:45;;;;;;;9.37;8.50;;;;;;;12.18;95.77;100913.34;5091428;28;20204;-64
2022/11/12 05:25:13;;;;;;;10.00;9.10;;;;;;;12.22;95.26;100917.34;5090907;28;20712;-65
2022/11/12 05:27:40;;;;;;;11.33;10.10;;;;;;;12.22;94.55;100917.34;5091631;28;20195;-64
2022/11/12 05:30:07;;;;;;;10.33;9.37;;;;;;;12.23;94.57;100924.31;5078681;28;20245;-64
2022/11/12 05:32:34;;;;;;;9.43;8.63;;;;;;;12.24;94.32;100928.63;5070830;28;20625;-64
2022/11/12 05:35:01;;;;;;;10.57;9.53;;;;;;;12.18;93.96;100932.00;5070957;28;20198;-64
2022/11/12 05:37:27;;;;;;;12.10;10.13;;;;;;;12.11;93.46;100932.81;5071054;28;20279;-64
2022/11/12 05:39:54;;;;;;;10.83;9.80;;;;;;;12.08;93.97;100936.66;5070761;28;20323;-64
2022/11/12 05:42:22;;;;;;;11.50;10.47;;;;;;;12.10;93.94;100944.50;5070156;28;20725;-66
2022/11/12 05:44:49;;;;;;;11.77;9.80;;;;;;;12.10;94.01;100949.81;5070728;28;20248;-65
2022/11/12 05:47:16;;;;;;;12.10;10.90;;;;;;;12.11;93.84;100954.97;5070570;28;20721;-65
2022/11/12 05:49:43;;;;;;;13.13;11.77;;;;;;;12.11;93.91;100962.97;5072142;28;20255;-65
2022/11/12 05:52:09;;;;;;;14.40;12.40;;;;;;;12.06;93.60;100957.34;5073877;28;20199;-64
2022/11/12 05:54:36;;;;;;;15.03;13.43;;;;;;;12.05;93.63;100966.28;5073726;28;20664;-64
2022/11/12 05:57:03;;;;;;;14.13;12.37;;;;;;;11.95;93.94;100984.31;5074113;28;20715;-64
2022/11/12 05:59:31;;;;;;;18.37;12.60;;;;;;;11.92;94.60;100989.97;5073845;28;20194;-65
2022/11/12 06:01:58;;;;;;;12.80;11.60;;;;;;;11.93;94.85;100981.00;5073953;28;20660;-64
2022/11/12 06:04:25;;;;;;;12.53;11.43;;;;;;;11.89;94.71;100990.31;5073889;28;20202;-64
2022/11/12 06:06:51;;;;;;;16.50;13.70;;;;;;;11.53;96.02;100986.28;5073457;28;20205;-63
2022/11/12 06:09:18;;;;;;;12.50;11.23;;;;;;;11.57;96.90;100992.09;5073289;28;20196;-64
2022/11/12 06:11:45;;;;;;;14.20;12.73;;;;;;;11.55;96.96;100997.59;5073194;28;20192;-62
2022/11/12 06:14:11;;;;;;;13.47;11.03;;;;;;;11.39;97.80;100997.56;5079573;28;20193;-64
2022/11/12 06:16:39;;;;;;;13.10;10.97;;;;;;;11.37;98.29;100999.56;5073773;28;20232;-63
2022/11/12 06:19:06;;;;;;;14.43;11.60;;;;;;;11.39;98.34;101004.75;5074438;28;20201;-64
2022/11/12 06:21:33;;;;;;;13.77;11.93;;;;;;;11.47;98.77;101010.06;5073316;28;20189;-63
2022/11/12 06:24:00;;;;;;;12.87;11.60;;;;;;;11.44;98.08;101013.91;5073764;28;20205;-63
2022/11/12 06:26:29;;;;;;;12.73;11.30;;;;;;;11.44;98.43;101011.25;5073268;28;20197;-65
2022/11/12 06:28:56;;;;;;;13.43;11.07;;;;;;;11.39;98.78;101021.50;5075552;28;20246;-63
2022/11/12 06:31:23;;;;;;;14.63;13.10;;;;;;;11.37;98.12;101020.88;5093766;28;20274;-62
2022/11/12 06:33:51;;;;;;;14.50;12.00;;;;;;;11.35;98.37;101025.50;5093361;28;20250;-62
2022/11/12 06:36:19;;;;;;;12.53;11.23;;;;;;;11.33;98.72;101024.84;5093335;28;20226;-63
2022/11/12 06:38:46;;;;;;;11.10;9.97;;;;;;;11.05;98.66;101031.41;5093464;28;20189;-65
2022/11/12 06:41:13;;;;;;;11.37;10.27;;;;;;;11.16;99.74;101023.16;5092859;28;20192;-64
2022/11/12 06:43:41;;;;;;;11.30;10.10;;;;;;;11.31;98.93;101031.31;5093084;28;20195;-64
2022/11/12 06:46:10;;;;;;;14.27;10.43;;;;;;;11.25;98.06;101035.47;5092694;28;20257;-65
2022/11/12 06:48:37;;;;;;;9.00;8.30;;;;;;;11.25;97.63;101029.31;5092395;28;20245;-64
2022/11/12 06:51:11;;;;;;;7.83;7.33;;;;;;;11.20;97.60;101043.09;5092787;28;20193;-65
2022/11/12 06:53:37;;;;;;;8.63;6.93;;;;;;;11.08;96.89;101039.91;5093155;28;20191;-64
2022/11/12 06:56:06;;;;;;;6.43;5.90;;;;;;;11.02;96.18;101043.22;5092961;28;20281;-65
2022/11/12 06:58:34;;;;;;;6.03;4.73;;;;;;;11.11;95.36;101036.06;5093201;28;20191;-63
2022/11/12 07:01:05;;;;;;;5.47;4.97;;;;;;;10.95;94.62;101044.03;5092141;28;20201;-64
2022/11/12 07:03:32;;;;;;;5.03;4.50;;;;;;;11.03;95.05;101041.41;5092768;28;20609;-68
2022/11/12 07:06:03;;;;;;;4.13;3.83;;;;;;;10.97;94.08;101042.03;5083550;28;20743;-66
2022/11/12 07:08:31;;;;;;;4.07;3.80;;;;;;;11.06;94.75;101034.91;5078585;28;20698;-66
2022/11/12 07:10:58;;;;;;;3.37;3.17;;;;;;;11.12;93.49;101042.25;5075601;28;20187;-65
2022/11/12 07:13:25;;;;;;;4.23;3.70;;;;;;;11.08;93.09;101044.41;5084080;28;20199;-66
2022/11/12 07:15:52;;;;;;;4.00;3.67;;;;;;;11.23;93.88;101039.28;5084010;28;20679;-69
2022/11/12 07:18:18;;;;;;;4.60;4.20;;;;;;;11.33;92.83;101051.44;5070616;28;20273;-67
2022/11/12 07:20:45;;;;;;;4.73;4.43;;;;;;;11.36;93.24;101045.81;5070107;28;20219;-65
2022/11/12 07:23:12;;;;;;;7.07;4.80;;;;;;;11.32;93.40;101047.13;5069749;28;20192;-69
2022/11/12 07:25:40;;;;;;;3.50;3.30;;;;;;;11.39;93.98;101049.97;5072166;28;20196;-66
2022/11/12 07:28:07;;;;;;;4.30;4.03;;;;;;;11.44;92.39;101048.50;5072531;28;20246;-66
2022/11/12 07:30:33;;;;;;;3.80;3.50;;;;;;;11.52;92.27;101058.31;5088126;28;20606;-67
2022/11/12 07:33:00;;;;;;;4.03;3.47;;;;;;;11.52;91.87;101042.34;5093354;28;20195;-67
2022/11/12 07:35:27;;;;;;;3.60;3.40;;;;;;;11.61;90.40;101054.69;5093528;28;20242;-62
2022/11/12 07:37:53;;;;;;;3.70;3.40;;;;;;;11.63;91.86;101058.03;5093492;28;20341;-60
2022/11/12 07:40:20;;;;;;;3.47;3.20;;;;;;;11.68;91.05;101055.69;5092566;28;20279;-61
2022/11/12 07:42:48;;;;;;;3.27;3.07;;;;;;;11.42;90.21;101055.78;5088287;28;20612;-61
2022/11/12 07:45:15;;;;;;;5.67;3.80;;;;;;;11.52;90.90;101060.97;5083624;28;20270;-61
2022/11/12 07:47:42;;;;;;;3.87;3.57;;;;;;;11.52;91.55;101067.13;5082919;28;20196;-62
2022/11/12 07:50:09;;;;;;;3.70;3.50;;;;;;;11.56;90.65;101063.13;5068193;28;20226;-62
2022/11/12 07:52:36;;;;;;;3.80;3.50;;;;;;;11.56;90.35;101071.09;5071790;28;20282;-61
2022/11/12 07:55:03;;;;;;;3.97;3.77;;;;;;;11.62;90.68;101064.31;5092657;28;20196;-64
2022/11/12 07:57:32;;;;;;;4.13;3.87;;;;;;;11.63;90.19;101063.34;5081845;28;20245;-61
2022/11/12 08:00:00;;;;;;;4.03;3.73;;;;;;;11.52;89.28;101056.50;5080751;28;20184;-62
2022/11/12 08:02:27;;;;;;;4.30;3.93;;;;;;;11.50;90.77;101057.63;5079972;28;20185;-61
2022/11/12 08:04:54;;;;;;;3.73;3.53;;;;;;;11.47;90.35;101053.47;5080880;28;20189;-61
2022/11/12 08:07:20;;;;;;;2.87;2.73;;;;;;;11.31;89.62;101048.09;5081712;28;20679;-61
2022/11/12 08:09:47;;;;;;;2.80;2.60;;;;;;;11.24;91.39;101052.44;5080953;28;20268;-60
2022/11/12 08:12:14;;;;;;;2.70;2.50;;;;;;;11.25;92.53;101053.25;5080149;28;20192;-60
2022/11/12 08:14:40;;;;;;;3.23;3.03;;;;;;;11.30;92.58;101048.28;5080655;28;20250;-60
2022/11/12 08:17:08;;;;;;;3.00;2.80;;;;;;;11.34;93.43;101053.09;5089345;28;20279;-60
2022/11/12 08:19:35;;;;;;;2.63;2.53;;;;;;;11.35;93.12;101052.09;5091811;28;20206;-60
2022/11/12 08:22:02;;;;;;;3.37;2.63;;;;;;;11.31;92.41;101053.41;5084144;28;20666;-61
2022/11/12 08:24:28;;;;;;;2.90;2.80;;;;;;;11.30;92.79;101056.28;5075772;28;20679;-59
2022/11/12 08:26:55;;;;;;;2.87;2.77;;;;;;;11.38;92.77;101059.78;5089088;28;20280;-60
2022/11/12 08:29:22;;;;;;;2.70;2.60;;;;;;;11.27;92.35;101045.94;5080014;28;20188;-61
2022/11/12 08:31:49;;;;;;;3.30;3.00;;;;;;;11.49;92.05;101071.94;5078464;28;20220;-60
2022/11/12 08:34:17;;;;;;;2.70;2.60;;;;;;;11.57;91.65;101074.59;5085563;28;20201;-60
2022/11/12 08:36:44;;;;;;;2.80;2.70;;;;;;;11.62;91.61;101072.31;5080041;28;20645;-60
2022/11/12 08:39:11;;;;;;;3.40;2.50;;;;;;;11.63;90.94;101082.81;5079537;28;20195;-61
2022/11/12 08:41:37;;;;;;;4.20;3.13;;;;;;;11.64;90.80;101083.66;5079877;28;20197;-61
2022/11/12 08:44:05;;;;;;;5.47;3.93;;;;;;;11.63;91.69;101084.66;5078378;28;20253;-69
2022/11/12 08:46:31;;;;;;;5.53;4.43;;;;;;;12.46;100.00;101084.31;5088851;28;20199;-63
2022/11/12 08:48:58;;;;;;;5.23;4.83;;;;;;;12.49;91.77;101100.78;5084397;28;20192;-60
2022/11/12 08:51:26;;;;;;;4.53;4.13;;;;;;;12.38;89.79;101098.47;5066382;28;20551;-61
2022/11/12 08:53:53;;;;;;;3.37;3.17;;;;;;;12.28;89.21;101097.81;5070853;28;20730;-60
2022/11/12 08:56:20;;;;;;;3.60;3.40;;;;;;;12.06;89.76;101093.16;5071484;28;20198;-60
2022/11/12 08:58:47;;;;;;;3.63;3.20;;;;;;;11.87;90.27;101093.47;5080304;28;20242;-60
2022/11/12 09:01:13;;;;;;;4.13;3.73;;;;;;;11.78;90.95;101093.63;5087503;28;20624;-61
2022/11/12 09:03:40;;;;;;;5.23;3.97;;;;;;;11.72;91.73;101095.13;5083530;28;20192;-60
2022/11/12 09:06:07;;;;;;;3.93;3.63;;;;;;;11.59;91.58;101094.72;5076758;28;20193;-60
2022/11/12 09:08:36;;;;;;;4.90;4.47;;;;;;;11.52;92.20;101088.44;5071138;28;20201;-60
2022/11/12 09:11:04;;;;;;;3.50;3.30;;;;;;;11.42;91.85;101079.72;5071582;28;20243;-60
2022/11/12 09:13:31;;;;;;;4.63;4.07;;;;;;;11.49;92.20;101079.91;5077369;28;20589;-60
2022/11/12 09:16:02;;;;;;;4.47;4.17;;;;;;;11.40;92.05;101080.91;5070513;28;20228;-62
2022/11/12 09:18:29;;;;;;;5.30;4.87;;;;;;;11.42;92.69;101076.22;5069927;28;20258;-61
2022/11/12 09:21:00;;;;;;;5.70;5.20;;;;;;;11.46;92.80;101082.88;5068925;28;20682;-61
2022/11/12 09:23:27;;;;;;;5.50;4.90;;;;;;;11.48;93.57;101076.44;5070994;28;20181;-61
2022/11/12 09:25:56;;;;;;;6.10;5.60;;;;;;;11.40;93.84;101073.75;5073840;28;20251;-61
2022/11/12 09:28:23;;;;;;;5.03;4.63;;;;;;;11.42;94.71;101071.75;5078736;28;20204;-61
2022/11/12 09:30:52;;;;;;;7.10;5.47;;;;;;;11.44;94.70;101075.09;5080399;28;20640;-61
2022/11/12 09:33:21;;;;;;;6.23;5.63;;;;;;;11.39;95.60;101072.06;5082092;28;20199;-61
2022/11/12 09:35:47;;;;;;;5.97;4.20;;;;;;;11.33;95.86;101070.06;5072788;28;20652;-60
2022/11/12 09:38:15;;;;;;;4.27;3.97;;;;;;;11.27;96.28;101067.22;5073269;28;20220;-61
2022/11/12 09:40:55;;;;;;;3.90;3.60;;;;;;;11.18;96.99;101062.88;5074557;28;20193;-61
2022/11/12 09:43:27;;;;;;;3.70;3.20;;;;;;;11.22;96.96;101070.38;5072951;28;20251;-60
2022/11/12 09:45:56;;;;;;;3.83;3.53;;;;;;;11.33;97.70;101062.09;5072929;28;20642;-61
2022/11/12 09:48:26;;;;;;;3.03;2.83;;;;;;;11.25;96.86;101056.75;5076922;28;20207;-63
2022/11/12 09:50:59;;;;;;;3.50;3.30;;;;;;;11.17;97.27;101056.72;5077160;28;20614;-63
2022/11/12 09:53:33;;;;;;;3.30;3.00;;;;;;;11.23;96.36;101050.75;5087628;28;20642;-61
2022/11/12 09:56:01;;;;;;;3.80;3.60;;;;;;;11.32;96.27;101056.94;5092463;28;20181;-62
2022/11/12 09:58:29;;;;;;;4.30;4.00;;;;;;;11.38;95.16;101062.44;5092528;28;20285;-61
2022/11/12 10:00:58;;;;;;;7.17;3.80;;;;;;;11.38;95.69;101051.78;5092389;28;20193;-61
2022/11/12 10:03:36;;;;;;;3.87;3.57;;;;;;;11.39;95.15;101064.09;5092250;28;20249;-62
2022/11/12 10:06:10;;;;;;;2.97;2.77;;;;;;;11.44;93.99;101067.13;5092841;28;20187;-62
2022/11/12 10:08:46;;;;;;;3.87;3.60;;;;;;;11.41;93.15;101070.09;5093930;28;20652;-62
2022/11/12 10:16:41;;;;;;;5.23;3.97;;;;;;;11.31;93.94;101057.94;4999000;28;20203;-63
2022/11/12 10:17:53;;;;;;;14.50;11.83;;;;;;;11.31;94.65;101058.75;5094307;28;20677;-61
2022/11/12 10:20:25;;;;;;;12.47;7.87;;;;;;;11.45;96.91;101055.47;5094731;28;20571;-62
2022/11/12 10:23:06;;;;;;;6.17;5.57;;;;;;;11.42;96.13;101060.25;5090928;28;20651;-63
2022/11/12 10:25:34;;;;;;;6.77;5.20;;;;;;;11.52;96.99;101056.50;5089034;28;20222;-64
2022/11/12 10:28:08;;;;;;;5.60;4.93;;;;;;;11.67;95.80;101065.50;5089312;28;20200;-61
2022/11/12 10:30:36;;;;;;;4.47;4.10;;;;;;;11.78;94.34;101065.19;5091463;28;20650;-62
2022/11/12 10:33:03;;;;;;;3.10;2.90;;;;;;;11.91;93.95;101064.69;5093269;28;20220;-61
2022/11/12 10:35:30;;;;;;;3.37;3.10;;;;;;;11.97;92.10;101078.16;5093125;28;20734;-61
2022/11/12 10:38:00;;;;;;;3.07;2.90;;;;;;;11.98;90.75;101071.84;5094210;28;20231;-67
2022/11/12 10:40:31;;;;;;;3.10;2.90;;;;;;;12.26;90.84;101073.19;5093874;28;20626;-60
2022/11/12 10:43:00;;;;;;;3.23;3.03;;;;;;;12.32;89.06;101077.81;5093666;28;20185;-61
2022/11/12 10:45:26;;;;;;;3.03;2.83;;;;;;;12.37;88.54;101075.47;5093692;28;20250;-60
2022/11/12 10:47:55;;;;;;;3.43;3.23;;;;;;;12.41;88.28;101071.47;5093918;28;20269;-61
2022/11/12 10:50:25;;;;;;;3.10;2.90;;;;;;;12.44;88.30;101065.81;5093662;28;20252;-60
2022/11/12 10:52:57;;;;;;;12.17;7.93;;;;;;;12.44;89.10;101055.16;5093722;28;20263;-60
2022/11/12 10:55:25;;;;;;;6.67;6.20;;;;;;;12.39;89.42;101054.00;5093721;28;20190;-60
2022/11/12 10:58:18;;;;;;;7.27;6.77;;;;;;;12.30;90.61;101063.84;5093519;28;20261;-64
2022/11/12 11:00:55;;;;;;;5.77;4.57;;;;;;;12.29;89.90;101062.16;5093673;28;20196;-62
2022/11/12 11:03:25;;;;;;;7.33;6.83;;;;;;;12.28;91.74;101043.69;5093250;28;20183;-64
2022/11/12 11:05:55;;;;;;;7.37;4.70;;;;;;;12.16;91.13;101050.38;5093590;28;20544;-64
2022/11/12 11:08:33;;;;;;;4.53;3.80;;;;;;;12.19;90.47;101064.19;5093577;28;21091;-64
2022/11/12 11:11:21;;;;;;;4.17;3.87;;;;;;;12.25;91.29;101076.81;5093103;28;20225;-65
2022/11/12 11:13:49;;;;;;;4.60;3.73;;;;;;;12.30;90.55;101077.16;5087131;28;20239;-64
2022/11/12 11:16:17;;;;;;;3.60;3.40;;;;;;;12.32;90.21;101076.97;5092671;28;20191;-63
2022/11/12 11:18:49;;;;;;;3.87;3.67;;;;;;;12.30;88.02;101066.50;5092941;28;20206;-63
2022/11/12 11:21:48;;;;;;;3.50;3.30;;;;;;;12.31;89.50;101065.50;5093482;28;20280;-63
2022/11/12 11:24:30;;;;;;;4.07;3.63;;;;;;;12.39;90.05;101073.50;5092536;28;20198;-64
2022/11/12 11:27:03;;;;;;;4.97;4.67;;;;;;;12.42;90.96;101061.66;5093273;28;20238;-65
2022/11/12 11:29:48;;;;;;;4.60;4.30;;;;;;;12.37;88.99;101059.50;5092844;28;20177;-65
2022/11/12 11:32:41;;;;;;;5.00;4.67;;;;;;;12.30;88.74;101061.19;5092923;28;20729;-64
2022/11/12 11:35:21;;;;;;;4.73;4.43;;;;;;;12.24;90.12;101059.19;5093142;28;20251;-61
2022/11/12 11:38:05;;;;;;;4.50;4.30;;;;;;;12.16;89.96;101056.53;5093083;28;20212;-62
2022/11/12 11:40:38;;;;;;;4.43;4.13;;;;;;;12.10;90.14;101057.22;5086623;28;20256;-62
2022/11/12 11:43:16;;;;;;;4.00;3.80;;;;;;;12.12;90.66;101057.03;5089901;28;20186;-62
2022/11/12 11:46:00;;;;;;;4.40;4.20;;;;;;;12.14;90.37;101047.88;5092808;28;20185;-62
2022/11/12 11:48:41;;;;;;;6.67;6.27;;;;;;;12.12;90.18;101051.72;5092133;28;20196;-62